createdAt,value
2022-10-17T00:00:10.670Z,1001.03
2022-10-17T00:01:10.717Z,1001.05
2022-10-17T00:02:10.629Z,1001.03
2022-10-17T00:03:10.612Z,1001.01
2022-10-17T00:04:10.623Z,1001.00
2022-10-17T00:05:10.607Z,1001.02
2022-10-17T00:06:10.580Z,1000.98
2022-10-17T00:07:10.565Z,1000.97
2022-10-17T00:08:10.554Z,1000.93
2022-10-17T00:09:10.562Z,1000.95
2022-10-17T00:10:10.536Z,1000.95
2022-10-17T00:11:10.519Z,1000.96
2022-10-17T00:12:10.517Z,1000.95
2022-10-17T00:13:10.497Z,1000.92
2022-10-17T00:14:10.524Z,1000.91
2022-10-17T00:15:10.495Z,1000.92
2022-10-17T00:16:10.464Z,1000.94
2022-10-17T00:17:10.453Z,1000.93
2022-10-17T00:18:10.442Z,1000.92
2022-10-17T00:19:10.432Z,1000.96
2022-10-17T00:20:10.474Z,1000.94
2022-10-17T00:21:10.412Z,1000.92
2022-10-17T00:22:10.397Z,1000.99
2022-10-17T00:23:10.384Z,1001.00
2022-10-17T00:24:10.378Z,1001.00
2022-10-17T00:25:10.383Z,1001.02
2022-10-17T00:26:10.353Z,1001.02
2022-10-17T00:27:10.364Z,1000.96
2022-10-17T00:28:10.332Z,1000.99
2022-10-17T00:29:10.412Z,1000.99
2022-10-17T00:30:10.394Z,1000.97
2022-10-17T00:31:10.299Z,1001.00
2022-10-17T00:32:10.286Z,1000.93
2022-10-17T00:33:10.295Z,1000.96
2022-10-17T00:34:10.265Z,1000.97
2022-10-17T00:35:10.249Z,1000.99
2022-10-17T00:36:10.242Z,1000.99
2022-10-17T00:37:10.257Z,1000.96
2022-10-17T00:38:10.222Z,1001.00
2022-10-17T00:39:10.210Z,1000.99
2022-10-17T00:40:10.218Z,1001.00
2022-10-17T00:41:10.183Z,1001.00
2022-10-17T00:42:10.175Z,1001.04
2022-10-17T00:43:10.161Z,1001.02
2022-10-17T00:44:10.151Z,1001.06
2022-10-17T00:45:10.159Z,1001.07
2022-10-17T00:46:10.148Z,1001.03
2022-10-17T00:47:10.115Z,1001.04
2022-10-17T00:48:10.107Z,1001.08
2022-10-17T00:49:10.102Z,1001.08
2022-10-17T00:50:10.107Z,1001.08
2022-10-17T00:51:10.073Z,1001.11
2022-10-17T00:52:10.061Z,1001.12
2022-10-17T00:53:10.052Z,1001.13
2022-10-17T00:54:10.039Z,1001.12
2022-10-17T00:55:10.059Z,1001.13
2022-10-17T00:56:10.021Z,1001.13
2022-10-17T00:57:10.004Z,1001.21
2022-10-17T00:58:09.993Z,1001.18
2022-10-17T00:59:10.090Z,1001.17
2022-10-17T01:00:09.993Z,1001.19
2022-10-17T01:01:10.025Z,1001.22
2022-10-17T01:02:10.109Z,1001.23
2022-10-17T01:03:09.937Z,1001.21
2022-10-17T01:04:09.928Z,1001.27
2022-10-17T01:05:09.917Z,1001.25
2022-10-17T01:06:09.906Z,1001.26
2022-10-17T01:07:09.913Z,1001.23
2022-10-17T01:08:09.884Z,1001.26
2022-10-17T01:09:09.875Z,1001.24
2022-10-17T01:10:09.889Z,1001.18
2022-10-17T01:11:09.848Z,1001.24
2022-10-17T01:12:09.864Z,1001.28
2022-10-17T01:13:09.825Z,1001.28
2022-10-17T01:14:09.819Z,1001.27
2022-10-17T01:15:09.810Z,1001.30
2022-10-17T01:16:09.794Z,1001.24
2022-10-17T01:17:09.799Z,1001.29
2022-10-17T01:18:09.828Z,1001.26
2022-10-17T01:19:09.781Z,1001.26
2022-10-17T01:20:09.748Z,1001.26
2022-10-17T01:21:09.736Z,1001.22
2022-10-17T01:22:09.729Z,1001.25
2022-10-17T01:23:09.725Z,1001.23
2022-10-17T01:24:09.705Z,1001.22
2022-10-17T01:25:09.712Z,1001.18
2022-10-17T01:26:09.683Z,1001.12
2022-10-17T01:27:09.704Z,1001.17
2022-10-17T01:28:09.668Z,1001.19
2022-10-17T01:29:09.687Z,1001.14
2022-10-17T01:30:09.636Z,1001.14
2022-10-17T01:31:09.625Z,1001.13
2022-10-17T01:32:09.616Z,1001.15
2022-10-17T01:33:09.622Z,1001.17
2022-10-17T01:34:09.626Z,1001.11
2022-10-17T01:35:09.581Z,1001.15
2022-10-17T01:36:09.571Z,1001.09
2022-10-17T01:37:09.558Z,1001.09
2022-10-17T01:38:09.577Z,1001.10
2022-10-17T01:39:09.534Z,1001.12
2022-10-17T01:40:09.530Z,1001.09
2022-10-17T01:41:09.518Z,1001.07
2022-10-17T01:42:09.501Z,1001.09
2022-10-17T01:43:09.527Z,1001.12
2022-10-17T01:44:09.502Z,1001.13
2022-10-17T01:45:09.468Z,1001.14
2022-10-17T01:46:09.458Z,1001.12
2022-10-17T01:47:09.451Z,1001.10
2022-10-17T01:48:09.434Z,1001.11
2022-10-17T01:49:09.447Z,1001.14
2022-10-17T01:50:09.429Z,1001.10
2022-10-17T01:51:09.415Z,1001.12
2022-10-17T01:52:09.390Z,1001.10
2022-10-17T01:53:09.399Z,1001.11
2022-10-17T01:54:09.385Z,1001.11
2022-10-17T01:55:09.361Z,1001.05
2022-10-17T01:56:09.343Z,1001.08
2022-10-17T01:57:09.354Z,1001.05
2022-10-17T01:58:09.326Z,1001.07
2022-10-17T01:59:09.330Z,1001.02
2022-10-17T02:00:09.298Z,1001.00
2022-10-17T02:01:09.376Z,1001.02
2022-10-17T02:02:09.297Z,1000.98
2022-10-17T02:03:09.289Z,1000.98
2022-10-17T02:04:09.255Z,1000.96
2022-10-17T02:05:09.246Z,1000.99
2022-10-17T02:06:09.251Z,1000.99
2022-10-17T02:07:09.238Z,1001.01
2022-10-17T02:08:09.212Z,1001.00
2022-10-17T02:09:09.219Z,1001.03
2022-10-17T02:10:09.186Z,1000.97
2022-10-17T02:11:09.184Z,1000.96
2022-10-17T02:12:09.166Z,1000.94
2022-10-17T02:13:09.193Z,1000.90
2022-10-17T02:14:09.263Z,1000.92
2022-10-17T02:15:09.134Z,1000.89
2022-10-17T02:16:09.124Z,1000.92
2022-10-17T02:17:09.116Z,1000.86
2022-10-17T02:18:09.105Z,1000.86
2022-10-17T02:19:09.111Z,1000.84
2022-10-17T02:20:09.076Z,1000.87
2022-10-17T02:21:09.064Z,1000.89
2022-10-17T02:22:09.078Z,1000.89
2022-10-17T02:23:09.061Z,1000.91
2022-10-17T02:24:09.054Z,1000.94
2022-10-17T02:25:09.026Z,1000.88
2022-10-17T02:26:09.012Z,1000.90
2022-10-17T02:27:09.010Z,1000.96
2022-10-17T02:28:09.009Z,1001.00
2022-10-17T02:29:08.997Z,1000.96
2022-10-17T02:30:08.967Z,1000.92
2022-10-17T02:31:08.955Z,1000.92
2022-10-17T02:32:09.014Z,1000.93
2022-10-17T02:33:08.932Z,1000.92
2022-10-17T02:34:08.919Z,1000.92
2022-10-17T02:35:08.957Z,1000.91
2022-10-17T02:36:08.901Z,1000.86
2022-10-17T02:37:08.928Z,1000.88
2022-10-17T02:38:08.896Z,1000.87
2022-10-17T02:39:08.882Z,1000.89
2022-10-17T02:40:08.855Z,1000.91
2022-10-17T02:41:08.845Z,1000.86
2022-10-17T02:42:08.833Z,1000.83
2022-10-17T02:43:08.838Z,1000.84
2022-10-17T02:44:08.830Z,1000.87
2022-10-17T02:45:08.816Z,1000.89
2022-10-17T02:46:08.783Z,1000.91
2022-10-17T02:47:08.775Z,1000.89
2022-10-17T02:48:08.763Z,1000.88
2022-10-17T02:49:08.751Z,1000.86
2022-10-17T02:50:08.760Z,1000.88
2022-10-17T02:51:08.728Z,1000.85
2022-10-17T02:52:08.720Z,1000.80
2022-10-17T02:53:08.705Z,1000.84
2022-10-17T02:54:08.737Z,1000.84
2022-10-17T02:55:08.717Z,1000.88
2022-10-17T02:56:08.675Z,1000.92
2022-10-17T02:57:08.660Z,1000.94
2022-10-17T02:58:08.658Z,1000.97
2022-10-17T02:59:08.658Z,1000.99
2022-10-17T03:00:08.654Z,1001.06
2022-10-17T03:01:08.697Z,1001.04
2022-10-17T03:02:08.604Z,1001.02
2022-10-17T03:03:08.595Z,1001.05
2022-10-17T03:04:08.582Z,1001.05
2022-10-17T03:05:08.573Z,1001.01
2022-10-17T03:06:08.581Z,1000.97
2022-10-17T03:07:08.552Z,1001.00
2022-10-17T03:08:08.566Z,1000.91
2022-10-17T03:09:08.527Z,1000.91
2022-10-17T03:10:08.533Z,1000.93
2022-10-17T03:11:08.581Z,1000.92
2022-10-17T03:12:08.494Z,1000.94
2022-10-17T03:13:08.481Z,1000.98
2022-10-17T03:14:08.489Z,1000.93
2022-10-17T03:15:08.486Z,1001.00
2022-10-17T03:16:08.451Z,1001.01
2022-10-17T03:17:08.466Z,1000.97
2022-10-17T03:18:08.426Z,1000.97
2022-10-17T03:19:08.442Z,1000.96
2022-10-17T03:20:08.409Z,1000.94
2022-10-17T03:21:08.393Z,1001.00
2022-10-17T03:22:08.406Z,1000.94
2022-10-17T03:23:08.381Z,1000.92
2022-10-17T03:24:08.361Z,1000.97
2022-10-17T03:25:08.400Z,1000.88
2022-10-17T03:26:08.354Z,1000.94
2022-10-17T03:27:08.327Z,1000.96
2022-10-17T03:28:08.314Z,1000.92
2022-10-17T03:29:08.373Z,1000.94
2022-10-17T03:30:08.300Z,1001.00
2022-10-17T03:31:08.321Z,1000.99
2022-10-17T03:32:08.271Z,1000.93
2022-10-17T03:33:08.260Z,1001.00
2022-10-17T03:34:08.269Z,1000.97
2022-10-17T03:35:11.256Z,1000.98
2022-10-17T03:36:09.246Z,1000.96
2022-10-17T03:37:08.214Z,1001.00
2022-10-17T03:38:08.204Z,1000.94
2022-10-17T03:39:08.193Z,1001.00
2022-10-17T03:40:08.180Z,1001.01
2022-10-17T03:41:08.189Z,1001.05
2022-10-17T03:42:08.174Z,1001.08
2022-10-17T03:43:08.146Z,1001.09
2022-10-17T03:44:08.159Z,1001.07
2022-10-17T03:45:08.124Z,1001.07
2022-10-17T03:46:08.206Z,1001.05
2022-10-17T03:47:10.472Z,1001.08
2022-10-17T03:48:09.110Z,1001.08
2022-10-17T03:49:08.081Z,1001.10
2022-10-17T03:50:08.067Z,1001.10
2022-10-17T03:51:08.077Z,1001.09
2022-10-17T03:52:08.049Z,1001.09
2022-10-17T03:53:08.037Z,1001.06
2022-10-17T03:54:08.026Z,1001.07
2022-10-17T03:55:08.011Z,1001.04
2022-10-17T03:56:08.028Z,1001.05
2022-10-17T03:57:07.990Z,1001.08
2022-10-17T03:58:07.998Z,1001.07
2022-10-17T03:59:07.966Z,1001.08
2022-10-17T04:00:07.980Z,1001.09
2022-10-17T04:01:08.042Z,1001.11
2022-10-17T04:02:07.954Z,1001.13
2022-10-17T04:03:07.921Z,1001.12
2022-10-17T04:04:07.915Z,1001.09
2022-10-17T04:05:07.902Z,1001.06
2022-10-17T04:06:07.911Z,1001.09
2022-10-17T04:07:07.880Z,1001.07
2022-10-17T04:08:07.868Z,1001.07
2022-10-17T04:09:07.855Z,1001.08
2022-10-17T04:10:07.866Z,1001.11
2022-10-17T04:11:07.833Z,1001.13
2022-10-17T04:12:07.849Z,1001.11
2022-10-17T04:13:07.809Z,1001.13
2022-10-17T04:14:07.815Z,1001.06
2022-10-17T04:15:07.786Z,1001.09
2022-10-17T04:16:07.776Z,1001.11
2022-10-17T04:17:07.783Z,1001.11
2022-10-17T04:18:07.759Z,1001.10
2022-10-17T04:19:07.745Z,1001.04
2022-10-17T04:20:07.731Z,1001.07
2022-10-17T04:21:07.722Z,1001.04
2022-10-17T04:22:07.730Z,1001.04
2022-10-17T04:23:07.718Z,1001.02
2022-10-17T04:24:07.687Z,1000.99
2022-10-17T04:25:07.676Z,1001.01
2022-10-17T04:26:07.670Z,1001.09
2022-10-17T04:27:07.656Z,1001.07
2022-10-17T04:28:07.841Z,1001.07
2022-10-17T04:29:07.632Z,1001.08
2022-10-17T04:30:07.638Z,1001.08
2022-10-17T04:31:07.607Z,1001.07
2022-10-17T04:32:07.596Z,1001.08
2022-10-17T04:33:07.605Z,1001.06
2022-10-17T04:34:07.575Z,1001.06
2022-10-17T04:35:07.562Z,1001.09
2022-10-17T04:36:07.550Z,1001.10
2022-10-17T04:37:07.563Z,1001.11
2022-10-17T04:38:07.536Z,1001.08
2022-10-17T04:39:07.562Z,1001.09
2022-10-17T04:40:07.508Z,1001.08
2022-10-17T04:41:07.494Z,1001.07
2022-10-17T04:42:07.505Z,1001.06
2022-10-17T04:43:07.491Z,1001.05
2022-10-17T04:44:07.490Z,1001.08
2022-10-17T04:45:07.451Z,1001.09
2022-10-17T04:46:07.461Z,1001.09
2022-10-17T04:47:07.429Z,1001.09
2022-10-17T04:48:07.419Z,1001.16
2022-10-17T04:49:07.426Z,1001.23
2022-10-17T04:50:07.427Z,1001.30
2022-10-17T04:51:07.382Z,1001.34
2022-10-17T04:52:07.373Z,1001.36
2022-10-17T04:53:07.359Z,1001.34
2022-10-17T04:54:07.369Z,1001.34
2022-10-17T04:55:07.346Z,1001.37
2022-10-17T04:56:07.356Z,1001.39
2022-10-17T04:57:07.316Z,1001.38
2022-10-17T04:58:07.312Z,1001.34
2022-10-17T04:59:07.292Z,1001.36
2022-10-17T05:00:07.305Z,1001.37
2022-10-17T05:01:07.337Z,1001.39
2022-10-17T05:02:07.285Z,1001.42
2022-10-17T05:03:07.256Z,1001.46
2022-10-17T05:04:07.268Z,1001.41
2022-10-17T05:05:07.265Z,1001.43
2022-10-17T05:06:07.221Z,1001.46
2022-10-17T05:07:07.209Z,1001.49
2022-10-17T05:08:07.200Z,1001.47
2022-10-17T05:09:07.180Z,1001.45
2022-10-17T05:10:07.195Z,1001.45
2022-10-17T05:11:07.180Z,1001.46
2022-10-17T05:12:09.575Z,1001.45
2022-10-17T05:13:07.137Z,1001.45
2022-10-17T05:14:07.130Z,1001.46
2022-10-17T05:15:07.171Z,1001.48
2022-10-17T05:16:07.124Z,1001.49
2022-10-17T05:17:07.094Z,1001.48
2022-10-17T05:18:07.097Z,1001.41
2022-10-17T05:19:07.069Z,1001.43
2022-10-17T05:20:07.086Z,1001.45
2022-10-17T05:21:07.051Z,1001.45
2022-10-17T05:22:07.041Z,1001.42
2022-10-17T05:23:07.027Z,1001.47
2022-10-17T05:24:07.020Z,1001.41
2022-10-17T05:25:07.026Z,1001.39
2022-10-17T05:26:06.998Z,1001.41
2022-10-17T05:27:06.984Z,1001.39
2022-10-17T05:28:06.975Z,1001.39
2022-10-17T05:29:07.033Z,1001.38
2022-10-17T05:30:06.970Z,1001.42
2022-10-17T05:31:06.958Z,1001.43
2022-10-17T05:32:06.928Z,1001.40
2022-10-17T05:33:06.919Z,1001.41
2022-10-17T05:34:09.096Z,1001.41
2022-10-17T05:35:06.894Z,1001.43
2022-10-17T05:36:06.903Z,1001.43
2022-10-17T05:37:06.869Z,1001.47
2022-10-17T05:38:06.858Z,1001.49
2022-10-17T05:39:06.845Z,1001.51
2022-10-17T05:40:06.841Z,1001.51
2022-10-17T05:41:06.847Z,1001.50
2022-10-17T05:42:06.817Z,1001.50
2022-10-17T05:43:06.804Z,1001.50
2022-10-17T05:44:06.792Z,1001.51
2022-10-17T05:45:07.208Z,1001.52
2022-10-17T05:46:06.788Z,1001.55
2022-10-17T05:47:06.760Z,1001.59
2022-10-17T05:48:06.771Z,1001.60
2022-10-17T05:49:15.002Z,1001.60
2022-10-17T05:50:07.739Z,1001.64
2022-10-17T05:51:06.713Z,1001.63
2022-10-17T05:52:06.707Z,1001.66
2022-10-17T05:53:06.711Z,1001.65
2022-10-17T05:54:06.680Z,1001.63
2022-10-17T05:55:06.670Z,1001.66
2022-10-17T05:56:06.660Z,1001.69
2022-10-17T05:57:06.668Z,1001.72
2022-10-17T05:58:06.662Z,1001.71
2022-10-17T05:59:07.230Z,1001.72
2022-10-17T06:00:06.660Z,1001.72
2022-10-17T06:01:09.359Z,1001.74
2022-10-17T06:02:07.650Z,1001.73
2022-10-17T06:03:06.577Z,1001.75
2022-10-17T06:04:06.589Z,1001.74
2022-10-17T06:05:06.555Z,1001.74
2022-10-17T06:06:06.566Z,1001.74
2022-10-17T06:07:06.532Z,1001.72
2022-10-17T06:08:06.544Z,1001.78
2022-10-17T06:09:06.539Z,1001.78
2022-10-17T06:10:06.500Z,1001.79
2022-10-17T06:11:09.877Z,1001.77
2022-10-17T06:12:06.505Z,1001.78
2022-10-17T06:13:06.476Z,1001.77
2022-10-17T06:14:06.475Z,1001.76
2022-10-17T06:15:06.445Z,1001.78
2022-10-17T06:16:06.433Z,1001.79
2022-10-17T06:17:06.452Z,1001.77
2022-10-17T06:18:06.411Z,1001.81
2022-10-17T06:19:06.421Z,1001.80
2022-10-17T06:20:06.388Z,1001.83
2022-10-17T06:21:06.380Z,1001.82
2022-10-17T06:22:06.387Z,1001.79
2022-10-17T06:23:06.358Z,1001.79
2022-10-17T06:24:06.387Z,1001.79
2022-10-17T06:25:06.331Z,1001.75
2022-10-17T06:26:06.322Z,1001.76
2022-10-17T06:27:10.915Z,1001.73
2022-10-17T06:28:07.299Z,1001.77
2022-10-17T06:29:06.389Z,1001.77
2022-10-17T06:30:06.279Z,1001.79
2022-10-17T06:31:06.267Z,1001.86
2022-10-17T06:32:07.678Z,1001.84
2022-10-17T06:33:06.262Z,1001.87
2022-10-17T06:34:06.235Z,1001.86
2022-10-17T06:35:06.225Z,1001.90
2022-10-17T06:36:06.211Z,1001.93
2022-10-17T06:37:06.200Z,1001.91
2022-10-17T06:38:06.228Z,1001.90
2022-10-17T06:39:06.210Z,1001.91
2022-10-17T06:40:06.169Z,1001.85
2022-10-17T06:41:06.159Z,1001.85
2022-10-17T06:42:06.144Z,1001.92
2022-10-17T06:43:06.131Z,1001.91
2022-10-17T06:44:06.119Z,1001.94
2022-10-17T06:45:06.134Z,1001.93
2022-10-17T06:46:06.098Z,1001.98
2022-10-17T06:47:06.088Z,1002.01
2022-10-17T06:48:06.076Z,1002.00
2022-10-17T06:49:06.067Z,1002.02
2022-10-17T06:50:06.073Z,1002.04
2022-10-17T06:51:06.054Z,1002.00
2022-10-17T06:52:06.038Z,1002.00
2022-10-17T06:53:06.021Z,1001.99
2022-10-17T06:54:06.028Z,1002.06
2022-10-17T06:55:06.023Z,1002.01
2022-10-17T06:56:06.017Z,1002.03
2022-10-17T06:57:05.984Z,1002.03
2022-10-17T06:58:05.968Z,1002.09
2022-10-17T06:59:05.957Z,1002.06
2022-10-17T07:00:05.946Z,1002.03
2022-10-17T07:01:06.101Z,1002.14
2022-10-17T07:02:05.919Z,1002.16
2022-10-17T07:03:05.909Z,1002.13
2022-10-17T07:04:05.901Z,1002.13
2022-10-17T07:05:05.889Z,1002.10
2022-10-17T07:06:05.895Z,1002.09
2022-10-17T07:07:05.885Z,1002.05
2022-10-17T07:08:05.853Z,1002.03
2022-10-17T07:09:05.844Z,1002.08
2022-10-17T07:10:05.848Z,1002.17
2022-10-17T07:11:05.845Z,1002.13
2022-10-17T07:12:05.810Z,1002.14
2022-10-17T07:13:05.822Z,1002.12
2022-10-17T07:14:05.789Z,1002.15
2022-10-17T07:15:05.780Z,1002.12
2022-10-17T07:16:05.790Z,1002.12
2022-10-17T07:17:05.758Z,1002.12
2022-10-17T07:18:05.745Z,1002.11
2022-10-17T07:19:05.735Z,1002.11
2022-10-17T07:20:05.725Z,1002.14
2022-10-17T07:21:05.734Z,1002.17
2022-10-17T07:22:05.699Z,1002.18
2022-10-17T07:23:05.691Z,1002.16
2022-10-17T07:24:05.681Z,1002.19
2022-10-17T07:25:05.681Z,1002.19
2022-10-17T07:26:05.690Z,1002.24
2022-10-17T07:27:05.678Z,1002.23
2022-10-17T07:28:05.655Z,1002.22
2022-10-17T07:29:05.763Z,1002.24
2022-10-17T07:30:05.633Z,1002.30
2022-10-17T07:31:05.603Z,1002.32
2022-10-17T07:32:05.586Z,1002.30
2022-10-17T07:33:05.600Z,1002.33
2022-10-17T07:34:05.599Z,1002.29
2022-10-17T07:35:05.562Z,1002.27
2022-10-17T07:36:05.547Z,1002.29
2022-10-17T07:37:05.574Z,1002.32
2022-10-17T07:38:05.520Z,1002.34
2022-10-17T07:39:05.509Z,1002.29
2022-10-17T07:40:05.519Z,1002.29
2022-10-17T07:41:05.487Z,1002.27
2022-10-17T07:42:05.496Z,1002.32
2022-10-17T07:43:05.465Z,1002.30
2022-10-17T07:44:05.473Z,1002.30
2022-10-17T07:45:05.444Z,1002.27
2022-10-17T07:46:05.437Z,1002.28
2022-10-17T07:47:05.427Z,1002.28
2022-10-17T07:48:05.412Z,1002.22
2022-10-17T07:49:05.421Z,1002.22
2022-10-17T07:50:05.418Z,1002.22
2022-10-17T07:51:05.378Z,1002.26
2022-10-17T07:52:05.369Z,1002.26
2022-10-17T07:53:05.364Z,1002.26
2022-10-17T07:54:05.372Z,1002.30
2022-10-17T07:55:05.332Z,1002.20
2022-10-17T07:56:05.342Z,1002.22
2022-10-17T07:57:05.310Z,1002.19
2022-10-17T07:58:05.313Z,1002.23
2022-10-17T07:59:08.407Z,1002.23
2022-10-17T08:00:05.297Z,1002.27
2022-10-17T08:01:06.604Z,1002.26
2022-10-17T08:02:05.261Z,1002.28
2022-10-17T08:03:05.274Z,1002.30
2022-10-17T08:04:05.235Z,1002.27
2022-10-17T08:05:05.245Z,1002.28
2022-10-17T08:06:05.208Z,1002.22
2022-10-17T08:07:19.722Z,1002.21
2022-10-17T08:08:06.185Z,1002.21
2022-10-17T08:09:05.198Z,1002.21
2022-10-17T08:10:05.217Z,1002.21
2022-10-17T08:11:05.157Z,1002.21
2022-10-17T08:12:05.141Z,1002.21
2022-10-17T08:13:05.133Z,1002.24
2022-10-17T08:14:05.158Z,1002.28
2022-10-17T08:15:05.112Z,1002.22
2022-10-17T08:16:05.122Z,1002.24
2022-10-17T08:17:05.088Z,1002.27
2022-10-17T08:18:05.079Z,1002.26
2022-10-17T08:19:05.119Z,1002.29
2022-10-17T08:20:05.142Z,1002.31
2022-10-17T08:21:05.045Z,1002.26
2022-10-17T08:22:05.057Z,1002.29
2022-10-17T08:23:05.022Z,1002.25
2022-10-17T08:24:05.012Z,1002.28
2022-10-17T08:25:05.004Z,1002.25
2022-10-17T08:26:04.991Z,1002.22
2022-10-17T08:27:04.981Z,1002.25
2022-10-17T08:28:05.075Z,1002.22
2022-10-17T08:29:05.006Z,1002.21
2022-10-17T08:30:04.960Z,1002.19
2022-10-17T08:31:04.954Z,1002.22
2022-10-17T08:32:07.742Z,1002.24
2022-10-17T08:33:04.919Z,1002.24
2022-10-17T08:34:04.899Z,1002.22
2022-10-17T08:35:04.893Z,1002.23
2022-10-17T08:36:04.880Z,1002.21
2022-10-17T08:37:04.935Z,1002.20
2022-10-17T08:38:04.857Z,1002.18
2022-10-17T08:39:04.845Z,1002.20
2022-10-17T08:40:04.834Z,1002.25
2022-10-17T08:41:04.827Z,1002.26
2022-10-17T08:42:04.832Z,1002.26
2022-10-17T08:43:04.804Z,1002.21
2022-10-17T08:44:04.792Z,1002.22
2022-10-17T08:45:04.783Z,1002.21
2022-10-17T08:46:04.862Z,1002.22
2022-10-17T08:47:04.791Z,1002.25
2022-10-17T08:48:04.743Z,1002.23
2022-10-17T08:49:06.618Z,1002.25
2022-10-17T08:50:04.725Z,1002.28
2022-10-17T08:51:04.715Z,1002.28
2022-10-17T08:52:04.702Z,1002.32
2022-10-17T08:53:04.691Z,1002.35
2022-10-17T08:54:04.699Z,1002.29
2022-10-17T08:55:04.671Z,1002.28
2022-10-17T08:56:04.655Z,1002.31
2022-10-17T08:57:04.650Z,1002.35
2022-10-17T08:58:04.786Z,1002.34
2022-10-17T08:59:04.630Z,1002.38
2022-10-17T09:00:04.616Z,1002.39
2022-10-17T09:01:06.990Z,1002.42
2022-10-17T09:02:05.611Z,1002.40
2022-10-17T09:03:04.646Z,1002.36
2022-10-17T09:04:04.573Z,1002.41
2022-10-17T09:05:04.607Z,1002.40
2022-10-17T09:06:04.546Z,1002.40
2022-10-17T09:07:04.536Z,1002.45
2022-10-17T09:08:04.560Z,1002.36
2022-10-17T09:09:04.517Z,1002.36
2022-10-17T09:10:04.507Z,1002.35
2022-10-17T09:11:04.490Z,1002.43
2022-10-17T09:12:04.480Z,1002.38
2022-10-17T09:13:06.829Z,1002.32
2022-10-17T09:14:04.479Z,1002.34
2022-10-17T09:15:04.447Z,1002.32
2022-10-17T09:16:04.433Z,1002.31
2022-10-17T09:17:04.427Z,1002.32
2022-10-17T09:18:04.458Z,1002.33
2022-10-17T09:19:04.429Z,1002.36
2022-10-17T09:20:04.390Z,1002.30
2022-10-17T09:21:04.378Z,1002.33
2022-10-17T09:22:04.366Z,1002.32
2022-10-17T09:23:04.363Z,1002.29
2022-10-17T09:24:09.828Z,1002.23
2022-10-17T09:25:05.335Z,1002.27
2022-10-17T09:26:04.322Z,1002.24
2022-10-17T09:27:04.314Z,1002.21
2022-10-17T09:28:04.303Z,1002.21
2022-10-17T09:29:04.334Z,1002.21
2022-10-17T09:30:04.681Z,1002.23
2022-10-17T09:31:04.273Z,1002.28
2022-10-17T09:32:04.257Z,1002.23
2022-10-17T09:33:04.275Z,1002.29
2022-10-17T09:34:04.252Z,1002.28
2022-10-17T09:35:04.250Z,1002.25
2022-10-17T09:36:04.214Z,1002.19
2022-10-17T09:37:04.207Z,1002.25
2022-10-17T09:38:04.190Z,1002.26
2022-10-17T09:39:04.184Z,1002.20
2022-10-17T09:40:04.192Z,1002.18
2022-10-17T09:41:15.745Z,1002.31
2022-10-17T09:42:05.168Z,1002.26
2022-10-17T09:43:04.138Z,1002.24
2022-10-17T09:44:04.144Z,1002.25
2022-10-17T09:45:04.116Z,1002.29
2022-10-17T09:46:04.123Z,1002.30
2022-10-17T09:47:04.114Z,1002.29
2022-10-17T09:48:04.084Z,1002.30
2022-10-17T09:49:04.076Z,1002.31
2022-10-17T09:50:04.110Z,1002.32
2022-10-17T09:51:15.080Z,1002.30
2022-10-17T09:52:05.072Z,1002.33
2022-10-17T09:53:04.030Z,1002.29
2022-10-17T09:54:04.086Z,1002.32
2022-10-17T09:55:04.035Z,1002.32
2022-10-17T09:56:04.000Z,1002.33
2022-10-17T09:57:04.007Z,1002.31
2022-10-17T09:58:03.972Z,1002.31
2022-10-17T09:59:03.987Z,1002.28
2022-10-17T10:00:04.226Z,1002.30
2022-10-17T10:01:03.987Z,1002.27
2022-10-17T10:02:03.933Z,1002.23
2022-10-17T10:03:03.918Z,1002.24
2022-10-17T10:04:03.906Z,1002.25
2022-10-17T10:05:05.605Z,1002.28
2022-10-17T10:06:03.904Z,1002.24
2022-10-17T10:07:03.874Z,1002.32
2022-10-17T10:08:03.872Z,1002.33
2022-10-17T10:09:03.855Z,1002.30
2022-10-17T10:10:03.859Z,1002.29
2022-10-17T10:11:03.833Z,1002.30
2022-10-17T10:12:03.814Z,1002.32
2022-10-17T10:13:03.809Z,1002.32
2022-10-17T10:14:03.814Z,1002.32
2022-10-17T10:15:03.804Z,1002.38
2022-10-17T10:16:03.770Z,1002.35
2022-10-17T10:17:03.761Z,1002.40
2022-10-17T10:18:03.774Z,1002.45
2022-10-17T10:19:05.866Z,1002.40
2022-10-17T10:20:04.733Z,1002.49
2022-10-17T10:21:03.741Z,1002.57
2022-10-17T10:22:03.719Z,1002.48
2022-10-17T10:23:03.693Z,1002.52
2022-10-17T10:24:03.701Z,1002.42
2022-10-17T10:25:03.671Z,1002.46
2022-10-17T10:26:03.667Z,1002.44
2022-10-17T10:27:03.649Z,1002.38
2022-10-17T10:28:03.637Z,1002.39
2022-10-17T10:29:03.717Z,1002.39
2022-10-17T10:30:03.611Z,1002.32
2022-10-17T10:31:03.603Z,1002.30
2022-10-17T10:32:03.589Z,1002.28
2022-10-17T10:33:03.582Z,1002.32
2022-10-17T10:34:03.590Z,1002.30
2022-10-17T10:35:03.560Z,1002.30
2022-10-17T10:36:03.548Z,1002.30
2022-10-17T10:37:03.549Z,1002.28
2022-10-17T10:38:03.545Z,1002.25
2022-10-17T10:39:04.645Z,1002.25
2022-10-17T10:40:03.503Z,1002.21
2022-10-17T10:41:03.492Z,1002.23
2022-10-17T10:42:03.481Z,1002.22
2022-10-17T10:43:05.565Z,1002.25
2022-10-17T10:44:03.458Z,1002.26
2022-10-17T10:45:03.470Z,1002.26
2022-10-17T10:46:03.440Z,1002.19
2022-10-17T10:47:03.451Z,1002.19
2022-10-17T10:48:03.415Z,1002.22
2022-10-17T10:49:03.432Z,1002.20
2022-10-17T10:50:03.396Z,1002.19
2022-10-17T10:51:03.388Z,1002.16
2022-10-17T10:52:03.372Z,1002.23
2022-10-17T10:53:03.383Z,1002.25
2022-10-17T10:54:03.392Z,1002.20
2022-10-17T10:55:03.342Z,1002.23
2022-10-17T10:56:03.328Z,1002.29
2022-10-17T10:57:03.342Z,1002.26
2022-10-17T10:58:03.308Z,1002.22
2022-10-17T10:59:03.321Z,1002.20
2022-10-17T11:00:03.288Z,1002.23
2022-10-17T11:01:03.341Z,1002.23
2022-10-17T11:02:03.266Z,1002.25
2022-10-17T11:03:03.884Z,1002.29
2022-10-17T11:04:03.269Z,1002.31
2022-10-17T11:05:03.230Z,1002.28
2022-10-17T11:06:03.223Z,1002.32
2022-10-17T11:07:03.231Z,1002.34
2022-10-17T11:08:03.200Z,1002.25
2022-10-17T11:09:03.191Z,1002.25
2022-10-17T11:10:03.223Z,1002.27
2022-10-17T11:11:03.165Z,1002.24
2022-10-17T11:12:03.178Z,1002.22
2022-10-17T11:13:03.146Z,1002.22
2022-10-17T11:14:03.134Z,1002.20
2022-10-17T11:15:03.127Z,1002.21
2022-10-17T11:16:03.121Z,1002.22
2022-10-17T11:17:03.129Z,1002.20
2022-10-17T11:18:03.109Z,1002.23
2022-10-17T11:19:03.086Z,1002.26
2022-10-17T11:20:03.069Z,1002.33
2022-10-17T11:21:03.089Z,1002.33
2022-10-17T11:22:03.074Z,1002.38
2022-10-17T11:23:03.038Z,1002.37
2022-10-17T11:24:06.771Z,1002.39
2022-10-17T11:25:04.013Z,1002.48
2022-10-17T11:26:03.022Z,1002.46
2022-10-17T11:27:02.994Z,1002.46
2022-10-17T11:28:05.217Z,1002.44
2022-10-17T11:29:03.024Z,1002.52
2022-10-17T11:30:02.963Z,1002.47
2022-10-17T11:31:05.744Z,1002.59
2022-10-17T11:32:02.939Z,1002.60
2022-10-17T11:33:02.943Z,1002.60
2022-10-17T11:34:02.916Z,1002.60
2022-10-17T11:35:02.926Z,1002.65
2022-10-17T11:36:02.919Z,1002.66
2022-10-17T11:37:02.885Z,1002.72
2022-10-17T11:38:02.878Z,1002.74
2022-10-17T11:39:02.865Z,1002.74
2022-10-17T11:40:02.879Z,1002.81
2022-10-17T11:41:02.840Z,1002.78
2022-10-17T11:42:04.159Z,1002.76
2022-10-17T11:43:02.822Z,1002.78
2022-10-17T11:44:02.818Z,1002.77
2022-10-17T11:45:02.795Z,1002.74
2022-10-17T11:46:02.825Z,1002.74
2022-10-17T11:47:02.774Z,1002.62
2022-10-17T11:48:02.789Z,1002.66
2022-10-17T11:49:02.760Z,1002.64
2022-10-17T11:52:03.799Z,1002.63
2022-10-17T11:53:02.969Z,1002.60
2022-10-17T11:54:02.724Z,1002.60
2022-10-17T11:55:02.689Z,1002.56
2022-10-17T11:56:02.691Z,1002.56
2022-10-17T11:57:02.667Z,1002.61
2022-10-17T11:58:02.673Z,1002.63
2022-10-17T11:59:02.673Z,1002.64
2022-10-17T12:00:02.643Z,1002.61
2022-10-17T12:01:02.621Z,1002.62
2022-10-17T12:02:02.615Z,1002.65
2022-10-17T12:03:02.624Z,1002.59
2022-10-17T12:04:02.644Z,1002.67
2022-10-17T12:05:02.583Z,1002.70
2022-10-17T12:06:02.590Z,1002.67
2022-10-17T12:07:02.581Z,1002.63